createdAt,value
2022-10-30T00:04:19.999Z,78.89
2022-10-30T00:09:23.112Z,79.16
2022-10-30T00:14:43.931Z,79.25
2022-10-30T00:20:06.434Z,79.31
2022-10-30T00:25:10.108Z,79.39
2022-10-30T00:30:15.584Z,79.59
2022-10-30T00:35:36.151Z,79.68
2022-10-30T00:40:39.196Z,79.79
2022-10-30T00:46:34.828Z,79.71
2022-10-30T00:51:44.190Z,79.65
2022-10-30T00:56:50.463Z,79.57
2022-10-30T01:01:54.862Z,79.65
2022-10-30T01:07:02.249Z,79.71
2022-10-30T01:12:23.135Z,79.93
2022-10-30T01:17:38.931Z,79.94
2022-10-30T01:23:41.252Z,80.10
2022-10-30T01:29:22.728Z,80.44
2022-10-30T01:34:28.323Z,80.67
2022-10-30T01:39:39.499Z,80.83
2022-10-30T01:44:42.492Z,81.18
2022-10-30T01:50:16.647Z,81.45
2022-10-30T01:55:50.556Z,81.61
2022-10-30T02:00:59.412Z,81.61
2022-10-30T02:06:20.550Z,81.65
2022-10-30T02:11:27.331Z,82.17
2022-10-30T02:16:31.898Z,83.06
2022-10-30T02:21:34.981Z,83.31
2022-10-30T02:26:38.399Z,83.32
2022-10-30T02:31:41.486Z,83.56
2022-10-30T02:37:02.099Z,83.47
2022-10-30T02:42:06.043Z,83.66
2022-10-30T02:47:09.235Z,84.03
2022-10-30T02:52:29.850Z,84.61
2022-10-30T02:57:33.991Z,85.36
2022-10-30T03:02:37.088Z,85.46
2022-10-30T03:07:40.098Z,85.51
2022-10-30T03:13:00.912Z,85.46
2022-10-30T03:18:04.223Z,85.47
2022-10-30T03:23:07.228Z,85.65
2022-10-30T03:28:10.231Z,85.30
2022-10-30T03:33:13.953Z,85.10
2022-10-30T03:38:16.988Z,84.97
2022-10-30T03:43:37.615Z,84.99
2022-10-30T03:48:40.678Z,85.19
2022-10-30T03:53:43.705Z,85.47
2022-10-30T03:58:46.991Z,85.97
2022-10-30T04:03:49.999Z,86.20
2022-10-30T04:08:55.664Z,86.42
2022-10-30T04:13:58.675Z,86.53
2022-10-30T04:19:19.292Z,86.72
2022-10-30T04:24:22.594Z,86.75
2022-10-30T04:29:25.598Z,86.54
2022-10-30T04:34:28.600Z,86.25
2022-10-30T04:39:32.527Z,85.82
2022-10-30T04:44:53.147Z,85.85
2022-10-30T04:49:56.085Z,85.85
2022-10-30T04:54:59.050Z,85.59
2022-10-30T05:00:02.051Z,85.87
2022-10-30T05:05:05.876Z,86.64
2022-10-30T05:10:14.885Z,86.96
2022-10-30T05:15:35.229Z,87.28
2022-10-30T05:20:38.236Z,87.58
2022-10-30T05:25:41.340Z,87.16
2022-10-30T05:31:02.264Z,86.79
2022-10-30T05:36:06.193Z,87.32
2022-10-30T05:41:09.198Z,87.73
2022-10-30T05:46:30.117Z,88.10
2022-10-30T05:51:37.930Z,88.51
2022-10-30T05:56:43.599Z,88.16
2022-10-30T06:01:46.559Z,87.89
2022-10-30T06:07:07.219Z,87.91
2022-10-30T06:12:28.245Z,88.20
2022-10-30T06:17:32.069Z,88.55
2022-10-30T06:22:35.076Z,88.54
2022-10-30T06:27:38.077Z,88.43
2022-10-30T06:32:41.186Z,88.23
2022-10-30T06:37:51.343Z,88.06
2022-10-30T06:42:55.369Z,87.75
2022-10-30T06:48:16.422Z,87.65
2022-10-30T06:53:19.428Z,87.59
2022-10-30T06:58:22.928Z,87.68
2022-10-30T07:03:25.942Z,87.57
2022-10-30T07:08:29.041Z,87.46
2022-10-30T07:13:49.557Z,87.22
2022-10-30T07:18:52.568Z,87.11
2022-10-30T07:23:55.870Z,87.10
2022-10-30T07:28:58.871Z,86.93
2022-10-30T07:34:02.183Z,86.52
2022-10-30T07:39:05.185Z,86.00
2022-10-30T07:44:08.293Z,85.75
2022-10-30T07:49:11.297Z,85.67
2022-10-30T07:54:14.636Z,85.40
2022-10-30T07:59:17.817Z,85.15
2022-10-30T08:04:20.923Z,85.08
2022-10-30T08:09:23.928Z,84.45
2022-10-30T08:14:44.654Z,84.21
2022-10-30T08:19:48.363Z,84.11
2022-10-30T08:25:09.599Z,83.79
2022-10-30T08:30:13.692Z,83.28
2022-10-30T08:35:20.058Z,83.36
2022-10-30T08:40:25.515Z,83.44
2022-10-30T08:45:31.074Z,83.17
2022-10-30T08:50:35.096Z,82.56
2022-10-30T08:55:55.792Z,82.00
2022-10-30T09:01:01.633Z,81.75
2022-10-30T09:06:22.703Z,81.40
2022-10-30T09:11:25.987Z,80.94
2022-10-30T09:16:46.602Z,80.72
2022-10-30T09:22:07.324Z,80.43
2022-10-30T09:27:10.433Z,80.19
2022-10-30T09:32:13.445Z,80.24
2022-10-30T09:37:38.915Z,79.96
2022-10-30T09:43:15.457Z,79.36
2022-10-30T09:48:36.683Z,79.45
2022-10-30T09:54:15.737Z,79.00
2022-10-30T09:59:50.378Z,78.47
2022-10-30T10:05:23.513Z,77.56
2022-10-30T10:10:45.688Z,76.70
2022-10-30T10:16:04.435Z,76.88
2022-10-30T10:21:28.106Z,76.89
2022-10-30T10:26:54.966Z,76.97
2022-10-30T10:32:45.077Z,76.75
2022-10-30T10:38:44.104Z,76.60
2022-10-30T10:44:08.392Z,76.40
2022-10-30T10:49:45.500Z,75.64
2022-10-30T10:55:06.617Z,75.22
2022-10-30T11:00:25.911Z,74.76
2022-10-30T11:06:21.756Z,74.88
2022-10-30T11:11:44.677Z,74.82
2022-10-30T11:17:39.035Z,75.04
2022-10-30T11:22:59.956Z,75.11
2022-10-30T11:28:06.174Z,74.83
2022-10-30T11:33:30.701Z,75.10
2022-10-30T11:38:33.602Z,75.14
2022-10-30T11:43:53.681Z,74.79
2022-10-30T11:48:56.890Z,74.14
2022-10-30T11:54:01.905Z,73.47
2022-10-30T11:59:06.169Z,73.44
2022-10-30T12:04:29.320Z,73.01
2022-10-30T12:09:32.640Z,73.21
2022-10-30T12:14:53.865Z,72.70
2022-10-30T12:19:58.104Z,72.56
2022-10-30T12:25:08.369Z,72.00
2022-10-30T12:30:21.162Z,70.61
2022-10-30T12:35:40.280Z,69.85
2022-10-30T12:41:24.981Z,69.03
2022-10-30T12:46:40.573Z,68.36
2022-10-30T12:52:00.869Z,66.68
2022-10-30T12:57:15.853Z,66.42
2022-10-30T13:02:38.626Z,66.28
2022-10-30T13:08:16.672Z,67.00
2022-10-30T13:13:48.680Z,67.65
2022-10-30T13:18:56.631Z,68.81
2022-10-30T13:25:03.576Z,69.17
2022-10-30T13:30:15.825Z,68.39
2022-10-30T13:36:02.250Z,67.96
2022-10-30T13:41:17.487Z,68.20
2022-10-30T13:46:49.579Z,69.01
2022-10-30T13:52:09.745Z,69.34
2022-10-30T13:57:44.742Z,69.77
2022-10-30T14:03:03.212Z,70.18
2022-10-30T14:08:14.291Z,70.50
2022-10-30T14:13:55.501Z,70.90
2022-10-30T14:19:07.008Z,71.49
2022-10-30T14:29:33.501Z,72.55
2022-10-30T14:34:54.939Z,73.33
2022-10-30T14:40:40.553Z,73.33
2022-10-30T14:45:59.808Z,73.94
2022-10-30T14:51:23.510Z,74.16
2022-10-30T14:56:54.306Z,74.60
2022-10-30T15:02:15.731Z,74.72
2022-10-30T15:07:39.473Z,75.18
2022-10-30T15:13:06.877Z,75.61
2022-10-30T15:18:19.639Z,75.78
2022-10-30T15:23:30.103Z,76.28
2022-10-30T15:28:36.499Z,76.41
2022-10-30T15:33:41.393Z,76.52
2022-10-30T15:38:44.498Z,76.84
2022-10-30T15:43:47.651Z,77.10
2022-10-30T15:48:51.753Z,77.18
2022-10-30T15:54:19.382Z,77.68
2022-10-30T15:59:32.943Z,77.64
2022-10-30T16:04:37.200Z,77.63
2022-10-30T16:09:56.904Z,77.71
2022-10-30T16:15:08.083Z,78.00
2022-10-30T16:20:13.211Z,78.19
2022-10-30T16:25:18.616Z,78.35
2022-10-30T16:30:23.685Z,78.69
2022-10-30T16:35:53.065Z,78.96
2022-10-30T16:40:59.068Z,78.77
2022-10-30T16:46:35.565Z,78.67
2022-10-30T16:52:05.977Z,78.83
2022-10-30T16:57:32.676Z,78.97
2022-10-30T17:02:44.872Z,79.15
2022-10-30T17:08:00.524Z,79.51
2022-10-30T17:13:35.116Z,79.89
2022-10-30T17:18:38.328Z,80.11
2022-10-30T17:23:47.879Z,79.96
2022-10-30T17:28:50.885Z,80.13
2022-10-30T17:34:20.387Z,80.47
2022-10-30T17:39:23.519Z,80.88
2022-10-30T17:44:28.981Z,80.98
2022-10-30T17:49:32.831Z,80.68
2022-10-30T17:54:36.915Z,80.52
2022-10-30T17:59:41.644Z,80.39
2022-10-30T18:04:46.214Z,80.50
2022-10-30T18:10:08.649Z,80.85
2022-10-30T18:15:42.088Z,81.18
2022-10-30T18:20:45.201Z,81.47
2022-10-30T18:26:06.631Z,81.54
2022-10-30T18:31:16.272Z,81.47
2022-10-30T18:36:23.434Z,81.67
2022-10-30T18:41:36.874Z,81.50
2022-10-30T18:46:39.967Z,81.17
2022-10-30T18:51:43.052Z,81.57
2022-10-30T18:57:04.180Z,81.59
2022-10-30T19:02:25.596Z,81.71
2022-10-30T19:07:28.760Z,81.82
2022-10-30T19:13:10.904Z,81.90
2022-10-30T19:18:14.154Z,81.88
2022-10-30T19:23:21.367Z,81.98
2022-10-30T19:28:25.931Z,81.97
2022-10-30T19:33:29.103Z,81.86
2022-10-30T19:38:33.797Z,81.83
2022-10-30T19:43:54.900Z,81.56
2022-10-30T19:48:59.326Z,81.61
2022-10-30T19:54:03.343Z,81.44
2022-10-30T19:59:25.859Z,81.54
2022-10-30T20:04:28.913Z,81.66
2022-10-30T20:09:32.329Z,81.82
2022-10-30T20:14:52.940Z,81.93
2022-10-30T20:19:56.046Z,81.87
2022-10-30T20:25:18.298Z,81.94
2022-10-30T20:30:23.534Z,81.57
2022-10-30T20:35:26.664Z,81.67
2022-10-30T20:40:31.325Z,82.17
2022-10-30T20:45:51.843Z,82.46
2022-10-30T20:51:13.561Z,82.38
2022-10-30T20:56:16.664Z,82.25
2022-10-30T21:01:19.975Z,82.00
2022-10-30T21:06:23.195Z,82.06
2022-10-30T21:11:26.297Z,82.16
2022-10-30T21:16:47.222Z,82.25
2022-10-30T21:21:50.222Z,82.06
2022-10-30T21:26:53.535Z,81.83
2022-10-30T21:31:56.870Z,81.88
2022-10-30T21:37:00.460Z,82.07
2022-10-30T21:42:03.767Z,82.38
2022-10-30T21:47:06.777Z,82.43
2022-10-30T21:52:12.238Z,82.51
2022-10-30T21:57:15.259Z,83.00
2022-10-30T22:02:18.460Z,82.99
2022-10-30T22:07:21.686Z,82.60
2022-10-30T22:12:24.761Z,82.50
2022-10-30T22:17:30.729Z,82.69
2022-10-30T22:22:36.941Z,82.95
2022-10-30T22:27:39.837Z,82.96
2022-10-30T22:32:42.922Z,82.64
2022-10-30T22:38:03.749Z,82.53
2022-10-30T22:43:06.890Z,82.40
2022-10-30T22:48:27.773Z,82.32
2022-10-30T22:53:33.302Z,82.45
2022-10-30T22:58:36.343Z,82.68
2022-10-30T23:03:40.155Z,82.63
2022-10-30T23:08:43.473Z,82.52
2022-10-30T23:13:47.094Z,82.50
2022-10-30T23:18:51.936Z,82.68
2022-10-30T23:23:55.870Z,82.75
2022-10-30T23:29:00.916Z,82.72
2022-10-30T23:34:08.804Z,83.01
2022-10-30T23:39:17.473Z,83.17
2022-10-30T23:44:20.406Z,83.14
2022-10-30T23:49:23.374Z,82.85
2022-10-30T23:54:26.405Z,82.90
2022-10-30T23:59:29.386Z,83.18
